Time;durP1;ratioP1;P1;durP2;ratioP2;P2;SDS_P1;SDS_P2;PMS_P1;PMS_P2;Temp;Humidity;BMP_temperature;BMP_pressure;BME280_temperature;BME280_humidity;BME280_pressure;Samples;Min_cycle;Max_cycle;Signal;HPM_P1;HPM_P2
2023/08/06 00:00:23;;;;;;;5.43;4.93;;;22.40;51.60;;;;;;5134092;27;20289;-52
2023/08/06 00:02:49;;;;;;;6.63;5.50;;;22.40;51.60;;;;;;5134472;27;20503;-51
2023/08/06 00:05:18;;;;;;;6.30;5.60;;;22.40;51.60;;;;;;5134280;27;20404;-52
2023/08/06 00:07:46;;;;;;;6.60;5.70;;;22.30;51.50;;;;;;5134763;27;20412;-53
2023/08/06 00:10:12;;;;;;;6.67;6.10;;;22.40;51.60;;;;;;5134033;27;20428;-50
2023/08/06 00:12:38;;;;;;;6.63;5.90;;;22.30;51.70;;;;;;5134335;27;20407;-53
2023/08/06 00:15:04;;;;;;;6.50;6.00;;;22.40;51.80;;;;;;5134136;27;20190;-53
2023/08/06 00:17:30;;;;;;;7.60;6.80;;;22.40;51.80;;;;;;5134226;27;20947;-51
2023/08/06 00:19:56;;;;;;;5.80;5.30;;;22.30;51.80;;;;;;5133652;27;20420;-53
2023/08/06 00:22:22;;;;;;;5.87;5.30;;;22.30;51.70;;;;;;5134102;27;20178;-53
2023/08/06 00:24:47;;;;;;;6.63;6.03;;;22.30;51.60;;;;;;5134133;27;20177;-51
2023/08/06 00:27:13;;;;;;;6.30;5.70;;;22.30;51.60;;;;;;5134045;27;20695;-50
2023/08/06 00:29:39;;;;;;;6.33;5.37;;;22.30;51.60;;;;;;5133609;27;20426;-54
2023/08/06 00:32:05;;;;;;;5.73;5.20;;;22.30;51.70;;;;;;5133910;27;20232;-53
2023/08/06 00:34:31;;;;;;;6.10;5.60;;;22.30;51.70;;;;;;5133697;27;20182;-51
2023/08/06 00:36:56;;;;;;;6.43;5.80;;;22.20;51.70;;;;;;5132264;27;20447;-53
2023/08/06 00:39:22;;;;;;;6.00;5.50;;;22.20;51.70;;;;;;5133572;27;20408;-53
2023/08/06 00:41:48;;;;;;;6.40;5.90;;;22.20;51.60;;;;;;5133635;27;20207;-49
2023/08/06 00:44:14;;;;;;;5.13;4.70;;;22.20;51.80;;;;;;5133676;27;20408;-52
2023/08/06 00:46:40;;;;;;;6.50;5.90;;;22.20;51.80;;;;;;5133727;27;20400;-52
2023/08/06 00:49:06;;;;;;;5.10;4.60;;;22.20;51.80;;;;;;5131997;27;20183;-52
2023/08/06 00:51:32;;;;;;;6.33;5.63;;;22.20;51.90;;;;;;5133347;27;20444;-51
2023/08/06 00:53:58;;;;;;;6.67;5.97;;;22.20;52.00;;;;;;5133448;27;21036;-52
2023/08/06 00:56:25;;;;;;;6.47;5.87;;;22.20;52.00;;;;;;5133515;27;20494;-51
2023/08/06 00:58:51;;;;;;;7.00;5.37;;;22.20;52.00;;;;;;5133218;27;20495;-53
2023/08/06 01:01:16;;;;;;;10.10;6.30;;;22.20;52.10;;;;;;5133243;27;20495;-52
2023/08/06 01:03:42;;;;;;;6.90;5.77;;;22.20;52.10;;;;;;5133176;27;20795;-51
2023/08/06 01:06:09;;;;;;;6.40;5.50;;;22.20;52.10;;;;;;5133334;27;20171;-54
2023/08/06 01:08:57;;;;;;;6.83;6.23;;;22.20;52.00;;;;;;5133216;27;20206;-51
2023/08/06 01:12:07;;;;;;;7.40;6.40;;;22.20;52.10;;;;;;5132948;27;20419;-53
2023/08/06 01:14:58;;;;;;;7.90;7.20;;;22.20;52.10;;;;;;5127336;27;20496;-50
2023/08/06 01:17:26;;;;;;;11.10;7.20;;;22.20;52.30;;;;;;5133334;27;20842;-52
2023/08/06 01:19:52;;;;;;;7.40;6.70;;;22.10;52.40;;;;;;5132803;27;20424;-50
2023/08/06 01:22:18;;;;;;;7.17;6.57;;;22.10;52.40;;;;;;5132964;27;20408;-50
2023/08/06 01:24:48;;;;;;;5.93;5.40;;;22.10;52.40;;;;;;5133259;27;20468;-52
2023/08/06 01:27:23;;;;;;;6.60;4.97;;;22.20;52.30;;;;;;5133008;27;20483;-50
2023/08/06 01:30:03;;;;;;;6.73;5.50;;;22.10;52.40;;;;;;5132741;27;20789;-50
2023/08/06 01:32:31;;;;;;;5.73;5.23;;;22.10;52.30;;;;;;5133303;27;20405;-52
2023/08/06 01:35:00;;;;;;;6.30;5.70;;;22.00;52.40;;;;;;5132735;27;20441;-53
2023/08/06 01:37:27;;;;;;;7.00;6.30;;;22.00;52.40;;;;;;5132895;27;20802;-49
2023/08/06 01:39:53;;;;;;;6.17;5.57;;;22.00;52.30;;;;;;5132596;27;20416;-52
2023/08/06 01:42:19;;;;;;;5.83;5.33;;;22.00;52.40;;;;;;5132958;27;20395;-52
2023/08/06 01:44:45;;;;;;;7.07;5.60;;;21.90;52.40;;;;;;5132801;27;20231;-52
2023/08/06 01:47:11;;;;;;;6.90;6.00;;;21.90;52.50;;;;;;5132859;27;20180;-49
2023/08/06 01:49:36;;;;;;;6.77;6.17;;;21.90;52.70;;;;;;5134894;27;20411;-52
2023/08/06 01:52:02;;;;;;;6.77;6.17;;;22.00;52.70;;;;;;5137180;27;20432;-52
2023/08/06 01:54:28;;;;;;;6.83;6.03;;;22.00;52.60;;;;;;5136987;27;20182;-52
2023/08/06 01:56:54;;;;;;;8.53;5.60;;;22.00;52.60;;;;;;5137001;27;20396;-51
2023/08/06 01:59:20;;;;;;;5.63;5.13;;;22.00;52.60;;;;;;5136635;27;20648;-52
2023/08/06 02:01:46;;;;;;;6.90;5.57;;;22.00;52.60;;;;;;5136780;27;20193;-49
2023/08/06 02:04:11;;;;;;;5.80;5.30;;;22.00;52.60;;;;;;5136758;27;20177;-52
2023/08/06 02:06:37;;;;;;;6.27;5.63;;;22.10;52.60;;;;;;5136800;27;20396;-51
2023/08/06 02:09:03;;;;;;;7.87;6.20;;;22.00;52.60;;;;;;5136732;27;20166;-49
2023/08/06 02:11:29;;;;;;;6.20;5.60;;;22.00;52.60;;;;;;5136407;27;20219;-51
2023/08/06 02:13:55;;;;;;;8.00;6.13;;;22.00;52.60;;;;;;5136546;27;20482;-52
2023/08/06 02:16:20;;;;;;;6.60;5.63;;;22.00;52.70;;;;;;5136561;27;20191;-49
2023/08/06 02:18:46;;;;;;;7.57;6.13;;;22.00;52.70;;;;;;5136559;27;20170;-52
2023/08/06 02:21:12;;;;;;;6.97;6.30;;;22.00;52.70;;;;;;5136206;27;20214;-49
2023/08/06 02:23:38;;;;;;;7.33;6.63;;;22.00;52.70;;;;;;5136607;27;20556;-51
2023/08/06 02:26:04;;;;;;;6.70;5.90;;;22.10;52.80;;;;;;5136366;27;20174;-51
2023/08/06 02:28:31;;;;;;;7.80;7.10;;;22.10;52.80;;;;;;5136411;27;20827;-51
2023/08/06 02:30:57;;;;;;;5.57;5.07;;;22.10;52.80;;;;;;5135900;27;20548;-51
2023/08/06 02:33:23;;;;;;;6.77;6.07;;;22.10;52.80;;;;;;5136504;27;20790;-52
2023/08/06 02:35:49;;;;;;;6.40;5.80;;;22.10;52.80;;;;;;5136243;27;20643;-51
2023/08/06 02:38:15;;;;;;;6.30;5.70;;;22.10;52.90;;;;;;5134874;27;20220;-51
2023/08/06 02:40:47;;;;;;;5.83;5.33;;;22.10;52.90;;;;;;5136011;27;20444;-51
2023/08/06 02:43:14;;;;;;;6.10;5.50;;;22.10;52.90;;;;;;5136085;27;21166;-51
2023/08/06 02:45:40;;;;;;;6.37;5.30;;;22.10;52.90;;;;;;5136010;27;20411;-51
2023/08/06 02:48:06;;;;;;;6.63;6.03;;;22.10;53.00;;;;;;5135960;27;20396;-51
2023/08/06 02:50:37;;;;;;;7.13;5.27;;;22.10;53.00;;;;;;5135756;27;20222;-52
2023/08/06 02:53:03;;;;;;;6.43;5.83;;;22.10;53.00;;;;;;5135830;27;20527;-52
2023/08/06 02:55:28;;;;;;;7.37;5.70;;;22.10;53.10;;;;;;5135786;27;20424;-53
2023/08/06 02:57:54;;;;;;;7.00;6.30;;;22.10;53.00;;;;;;5135857;27;20219;-53
2023/08/06 03:00:20;;;;;;;7.47;6.00;;;22.10;52.90;;;;;;5135042;27;20683;-49
2023/08/06 03:02:46;;;;;;;6.53;5.93;;;22.00;52.90;;;;;;5135686;27;20166;-52
2023/08/06 03:05:11;;;;;;;8.20;5.57;;;22.00;53.00;;;;;;5135968;27;20249;-50
2023/08/06 03:07:37;;;;;;;6.77;6.17;;;22.00;53.10;;;;;;5135675;27;20162;-50
2023/08/06 03:10:03;;;;;;;7.43;6.70;;;22.00;53.10;;;;;;5135274;27;20589;-52
2023/08/06 03:12:30;;;;;;;7.07;6.27;;;22.00;53.20;;;;;;5135594;27;20584;-50
2023/08/06 03:14:55;;;;;;;6.10;5.50;;;22.00;53.20;;;;;;5135267;27;20450;-53
2023/08/06 03:17:21;;;;;;;5.73;5.20;;;22.00;53.20;;;;;;5135672;27;20488;-53
2023/08/06 03:19:47;;;;;;;6.97;6.37;;;22.00;53.10;;;;;;5135121;27;20639;-50
2023/08/06 03:22:13;;;;;;;6.70;6.07;;;22.00;53.10;;;;;;5135379;27;20174;-51
2023/08/06 03:24:38;;;;;;;6.23;5.63;;;22.00;53.10;;;;;;5135563;27;20166;-54
2023/08/06 03:27:04;;;;;;;6.83;6.23;;;22.00;53.20;;;;;;5135294;27;20643;-54
2023/08/06 03:29:30;;;;;;;6.93;6.00;;;22.00;53.10;;;;;;5134752;27;20189;-51
2023/08/06 03:31:56;;;;;;;6.20;5.30;;;22.00;53.10;;;;;;5135080;27;20408;-51
2023/08/06 03:34:22;;;;;;;7.43;6.03;;;22.00;53.10;;;;;;5135014;27;20198;-53
2023/08/06 03:36:48;;;;;;;6.07;5.47;;;22.00;53.10;;;;;;5135080;27;20176;-51
2023/08/06 03:39:13;;;;;;;7.13;6.40;;;22.00;53.00;;;;;;5134727;27;20206;-51
2023/08/06 03:41:40;;;;;;;7.43;6.73;;;22.00;52.90;;;;;;5134782;27;20186;-54
2023/08/06 03:44:06;;;;;;;6.90;6.20;;;21.90;52.90;;;;;;5135332;27;20451;-53
2023/08/06 03:46:35;;;;;;;7.20;6.20;;;21.90;53.20;;;;;;5134869;27;20913;-50
2023/08/06 03:49:01;;;;;;;6.50;5.90;;;21.90;53.30;;;;;;5134747;27;20453;-50
2023/08/06 03:51:26;;;;;;;6.17;5.57;;;21.90;53.20;;;;;;5134498;27;20420;-53
2023/08/06 03:53:52;;;;;;;6.20;5.60;;;21.90;53.20;;;;;;5134677;27;20806;-50
2023/08/06 03:56:18;;;;;;;6.90;5.67;;;21.90;53.30;;;;;;5134640;27;20251;-53
2023/08/06 03:58:44;;;;;;;9.73;6.13;;;21.90;53.30;;;;;;5134497;27;20170;-52
2023/08/06 04:01:10;;;;;;;6.23;5.73;;;21.90;53.20;;;;;;5134196;27;20715;-53
2023/08/06 04:03:35;;;;;;;6.03;5.33;;;21.90;53.30;;;;;;5134481;27;20165;-52
2023/08/06 04:06:04;;;;;;;5.00;4.60;;;21.90;53.30;;;;;;5134469;27;20509;-52
2023/08/06 04:08:30;;;;;;;5.77;5.27;;;22.00;53.40;;;;;;5134402;27;20199;-53
2023/08/06 04:10:56;;;;;;;5.80;5.13;;;22.00;53.30;;;;;;5133832;27;20416;-53
2023/08/06 04:13:21;;;;;;;6.03;5.43;;;21.90;53.40;;;;;;5132292;27;20444;-51
2023/08/06 04:15:47;;;;;;;5.40;5.00;;;21.90;53.30;;;;;;5134420;27;20221;-54
2023/08/06 04:18:14;;;;;;;6.00;5.50;;;21.90;53.30;;;;;;5134125;27;20698;-52
2023/08/06 04:20:46;;;;;;;5.83;5.33;;;21.90;53.20;;;;;;5133748;27;20455;-54
2023/08/06 04:23:13;;;;;;;5.57;5.07;;;22.00;53.30;;;;;;5134283;27;20411;-51
2023/08/06 04:25:38;;;;;;;8.07;5.30;;;21.90;53.20;;;;;;5133952;27;20432;-51
2023/08/06 04:28:04;;;;;;;6.27;5.40;;;21.90;53.20;;;;;;5134061;27;20436;-51
2023/08/06 04:30:30;;;;;;;6.87;6.20;;;21.90;53.30;;;;;;5133670;27;20217;-53
2023/08/06 04:32:59;;;;;;;6.53;5.93;;;21.90;53.40;;;;;;5134071;27;20396;-53
2023/08/06 04:35:24;;;;;;;6.23;5.10;;;21.90;53.40;;;;;;5133979;27;20254;-51
2023/08/06 04:37:50;;;;;;;4.40;4.00;;;22.00;53.50;;;;;;5133775;27;20852;-51
2023/08/06 04:40:16;;;;;;;7.43;4.40;;;21.90;53.50;;;;;;5133332;27;20186;-51
2023/08/06 04:42:42;;;;;;;3.60;3.30;;;21.90;53.40;;;;;;5134011;27;20921;-54
2023/08/06 04:45:08;;;;;;;5.00;4.10;;;21.90;53.40;;;;;;5133647;27;20163;-54
2023/08/06 04:47:34;;;;;;;7.37;4.30;;;22.00;53.40;;;;;;5133591;27;20166;-52
2023/08/06 04:50:00;;;;;;;4.00;3.40;;;21.90;53.30;;;;;;5133346;27;21031;-54
2023/08/06 04:52:28;;;;;;;4.67;3.43;;;21.90;53.00;;;;;;5132249;27;20167;-52
2023/08/06 04:54:54;;;;;;;4.53;3.93;;;21.90;53.00;;;;;;5133363;27;20282;-53
2023/08/06 04:57:21;;;;;;;4.70;4.30;;;21.80;53.10;;;;;;5133443;27;20495;-54
2023/08/06 04:59:47;;;;;;;4.03;3.63;;;21.80;53.20;;;;;;5133068;27;20416;-51
2023/08/06 05:02:13;;;;;;;5.37;4.97;;;21.80;53.30;;;;;;5133549;27;20449;-53
2023/08/06 05:04:38;;;;;;;5.30;4.80;;;21.80;53.30;;;;;;5133435;27;20404;-53
2023/08/06 05:07:05;;;;;;;5.90;5.43;;;21.80;53.30;;;;;;5133362;27;20198;-51
2023/08/06 05:09:31;;;;;;;5.80;5.30;;;21.70;53.50;;;;;;5133191;27;20249;-53
2023/08/06 05:11:57;;;;;;;6.03;4.57;;;21.70;53.60;;;;;;5133238;27;20996;-51
2023/08/06 05:14:23;;;;;;;5.27;4.70;;;21.70;53.60;;;;;;5133319;27;20263;-52
2023/08/06 05:16:48;;;;;;;5.53;4.83;;;21.80;53.80;;;;;;5133118;27;20169;-55
2023/08/06 05:19:14;;;;;;;7.03;5.73;;;21.70;53.70;;;;;;5132960;27;20636;-51
2023/08/06 05:21:40;;;;;;;6.17;5.57;;;21.80;53.70;;;;;;5132985;27;20182;-53
2023/08/06 05:24:06;;;;;;;6.33;5.73;;;21.80;53.90;;;;;;5131994;27;20170;-51
2023/08/06 05:26:31;;;;;;;6.27;5.70;;;21.90;53.90;;;;;;5133107;27;20167;-52
2023/08/06 05:28:57;;;;;;;6.87;6.17;;;21.80;53.90;;;;;;5133071;27;20170;-54
2023/08/06 05:31:23;;;;;;;5.43;4.93;;;21.90;54.00;;;;;;5132737;27;20198;-54
2023/08/06 05:33:49;;;;;;;6.27;5.67;;;21.80;53.80;;;;;;5132878;27;20625;-51
2023/08/06 05:36:15;;;;;;;6.50;5.80;;;21.90;54.50;;;;;;5132923;27;20404;-51
2023/08/06 05:38:41;;;;;;;6.03;5.50;;;21.90;53.90;;;;;;5131594;28;20166;-53
2023/08/06 05:41:07;;;;;;;7.47;6.77;;;21.90;53.90;;;;;;5132758;27;20963;-51
2023/08/06 05:43:32;;;;;;;7.50;6.90;;;21.90;53.90;;;;;;5132875;27;20409;-51
2023/08/06 05:45:58;;;;;;;6.57;5.97;;;21.90;53.90;;;;;;5132830;27;20170;-53
2023/08/06 05:48:24;;;;;;;7.83;5.90;;;21.90;53.90;;;;;;5133125;27;20257;-51
2023/08/06 05:50:52;;;;;;;6.67;6.07;;;21.90;54.00;;;;;;5132500;27;20420;-53
2023/08/06 05:53:18;;;;;;;5.22;4.75;;;21.90;54.10;;;;;;5132533;27;21049;-52
2023/08/06 05:55:44;;;;;;;5.60;5.10;;;21.90;54.10;;;;;;5133017;27;20265;-52
2023/08/06 05:58:10;;;;;;;6.70;4.90;;;21.90;54.10;;;;;;5131769;28;20220;-54
2023/08/06 06:00:36;;;;;;;5.77;5.17;;;21.90;54.10;;;;;;5132416;27;20443;-51
2023/08/06 06:03:02;;;;;;;5.97;5.37;;;21.90;54.00;;;;;;5132840;27;20184;-51
2023/08/06 06:05:28;;;;;;;5.77;5.37;;;21.90;54.00;;;;;;5132965;27;20601;-54
2023/08/06 06:07:54;;;;;;;7.00;6.40;;;22.00;53.90;;;;;;5132584;27;20964;-52
2023/08/06 06:10:20;;;;;;;5.20;4.70;;;21.90;54.00;;;;;;5131059;27;20948;-52
2023/08/06 06:12:46;;;;;;;5.33;4.83;;;22.00;54.00;;;;;;5132661;27;20606;-54
2023/08/06 06:15:12;;;;;;;5.50;5.00;;;22.00;54.10;;;;;;5132897;27;20636;-52
2023/08/06 06:17:37;;;;;;;6.13;5.60;;;22.00;54.10;;;;;;5132579;27;20644;-53
2023/08/06 06:20:04;;;;;;;10.03;5.10;;;22.00;54.10;;;;;;5132216;27;20218;-55
2023/08/06 06:22:30;;;;;;;5.27;4.87;;;22.10;54.20;;;;;;5132484;27;20166;-52
2023/08/06 06:24:56;;;;;;;5.83;5.33;;;22.10;54.20;;;;;;5132489;27;20487;-51
2023/08/06 06:27:22;;;;;;;5.40;4.90;;;22.10;54.20;;;;;;5132756;27;20500;-51
2023/08/06 06:29:48;;;;;;;5.23;4.73;;;22.10;54.20;;;;;;5132138;27;20808;-50
2023/08/06 06:32:13;;;;;;;4.80;4.40;;;22.10;54.30;;;;;;5132509;27;20166;-56
2023/08/06 06:34:39;;;;;;;5.63;5.10;;;22.20;54.20;;;;;;5132692;27;20281;-52
2023/08/06 06:37:05;;;;;;;5.37;4.97;;;22.20;54.20;;;;;;5136136;27;20171;-52
2023/08/06 06:39:31;;;;;;;6.00;5.50;;;22.20;54.20;;;;;;5136159;27;20246;-54
2023/08/06 06:41:57;;;;;;;6.23;5.63;;;22.20;54.10;;;;;;5136160;27;20397;-51
2023/08/06 06:44:23;;;;;;;30.93;27.90;;;22.20;54.80;;;;;;5136104;27;20445;-51
2023/08/06 06:46:48;;;;;;;20.30;18.30;;;22.20;53.90;;;;;;5136007;27;20177;-51
2023/08/06 06:49:14;;;;;;;12.80;11.57;;;22.20;53.60;;;;;;5135717;27;20204;-54
2023/08/06 06:51:40;;;;;;;8.90;8.00;;;22.10;53.60;;;;;;5135712;27;20286;-51
2023/08/06 06:54:06;;;;;;;12.87;11.27;;;22.20;53.80;;;;;;5135873;27;20195;-51
2023/08/06 06:56:32;;;;;;;16.20;13.13;;;22.20;53.90;;;;;;5135836;27;20171;-54
2023/08/06 06:58:57;;;;;;;13.80;12.40;;;22.20;54.00;;;;;;5135864;27;20541;-51
2023/08/06 07:01:23;;;;;;;10.70;9.60;;;22.20;54.10;;;;;;5134277;27;20663;-54
2023/08/06 07:03:49;;;;;;;9.47;7.87;;;22.20;54.10;;;;;;5135693;27;20239;-54
2023/08/06 07:06:15;;;;;;;12.00;7.80;;;22.20;53.90;;;;;;5135598;27;20594;-52
2023/08/06 07:08:41;;;;;;;7.20;6.60;;;22.20;54.00;;;;;;5135830;27;20513;-51
2023/08/06 07:11:07;;;;;;;7.50;6.80;;;22.30;54.20;;;;;;5135256;27;20931;-55
2023/08/06 07:13:34;;;;;;;7.90;7.07;;;22.30;54.40;;;;;;5135635;27;20440;-51
2023/08/06 07:16:00;;;;;;;7.33;6.13;;;22.40;54.40;;;;;;5135468;27;20396;-52
2023/08/06 07:18:26;;;;;;;7.50;6.63;;;22.40;54.20;;;;;;5135387;27;20936;-55
2023/08/06 07:20:53;;;;;;;7.03;6.33;;;22.40;54.20;;;;;;5135024;27;20506;-52
2023/08/06 07:23:21;;;;;;;10.20;6.77;;;22.50;54.30;;;;;;5135297;27;20194;-51
2023/08/06 07:25:47;;;;;;;8.03;7.33;;;22.50;54.40;;;;;;5135237;27;20774;-51
2023/08/06 07:28:16;;;;;;;7.27;6.57;;;22.50;54.50;;;;;;5133935;27;20810;-54
2023/08/06 07:30:43;;;;;;;7.33;6.63;;;22.50;54.30;;;;;;5135143;27;20424;-54
2023/08/06 07:33:09;;;;;;;8.67;7.07;;;22.50;54.20;;;;;;5134930;27;20444;-51
2023/08/06 07:35:36;;;;;;;7.93;7.27;;;22.50;54.10;;;;;;5135081;27;20505;-54
2023/08/06 07:38:02;;;;;;;6.67;6.00;;;22.50;54.20;;;;;;5135191;27;20400;-51
2023/08/06 07:40:28;;;;;;;7.40;6.70;;;22.50;54.40;;;;;;5134652;27;20418;-51
2023/08/06 07:42:54;;;;;;;6.57;5.93;;;22.50;54.30;;;;;;5134896;27;20400;-53
2023/08/06 07:45:20;;;;;;;7.23;6.53;;;22.50;54.30;;;;;;5134985;27;20396;-51
2023/08/06 07:47:46;;;;;;;8.60;7.20;;;22.50;54.30;;;;;;5132370;27;20407;-53
2023/08/06 07:50:13;;;;;;;7.60;6.90;;;22.50;54.40;;;;;;5134478;27;20261;-54
2023/08/06 07:52:38;;;;;;;9.23;7.03;;;22.50;54.40;;;;;;5134864;27;20431;-52
2023/08/06 07:55:04;;;;;;;6.83;6.13;;;22.50;54.10;;;;;;5134520;27;20487;-54
2023/08/06 07:57:32;;;;;;;7.23;6.60;;;22.50;54.10;;;;;;5134590;27;20173;-51
2023/08/06 07:59:57;;;;;;;8.90;7.37;;;22.50;53.80;;;;;;5134118;27;20976;-51
2023/08/06 08:02:24;;;;;;;6.37;5.77;;;22.40;53.80;;;;;;5134361;27;20408;-53
2023/08/06 08:04:50;;;;;;;6.10;5.47;;;22.40;53.90;;;;;;5134464;27;20181;-53
2023/08/06 08:07:15;;;;;;;9.50;6.53;;;22.30;53.60;;;;;;5134459;27;20404;-51
2023/08/06 08:09:41;;;;;;;12.03;6.47;;;22.30;53.60;;;;;;5134163;27;20400;-51
2023/08/06 08:12:07;;;;;;;6.47;5.70;;;22.30;53.60;;;;;;5134339;27;20259;-52
2023/08/06 08:14:35;;;;;;;6.63;6.03;;;22.20;53.40;;;;;;5134249;27;20182;-53
2023/08/06 08:17:05;;;;;;;7.77;6.63;;;22.20;53.90;;;;;;5134102;27;20400;-52
2023/08/06 08:19:32;;;;;;;5.00;4.50;;;22.20;54.40;;;;;;5133929;27;20404;-54
2023/08/06 08:21:57;;;;;;;8.03;5.23;;;22.20;54.50;;;;;;5134125;27;20400;-51
2023/08/06 08:24:24;;;;;;;5.40;4.90;;;22.20;54.60;;;;;;5134392;27;20412;-52
2023/08/06 08:26:53;;;;;;;4.90;4.40;;;22.30;54.90;;;;;;5134076;27;20416;-53
2023/08/06 08:29:22;;;;;;;4.90;4.17;;;22.30;54.80;;;;;;5133990;27;20465;-53
2023/08/06 08:31:51;;;;;;;4.43;4.03;;;22.30;54.50;;;;;;5133755;27;20420;-51
2023/08/06 08:34:17;;;;;;;5.63;2.90;;;22.30;54.10;;;;;;5133855;27;20537;-51
2023/08/06 08:36:46;;;;;;;4.17;3.77;;;22.30;53.70;;;;;;5133876;27;20404;-53
2023/08/06 08:39:12;;;;;;;3.87;3.47;;;22.30;53.60;;;;;;5132350;27;20428;-52
2023/08/06 08:41:39;;;;;;;3.60;3.30;;;22.20;53.60;;;;;;5133699;27;20424;-51
2023/08/06 08:44:11;;;;;;;4.20;3.80;;;22.20;53.80;;;;;;5133620;27;20800;-54
2023/08/06 08:46:42;;;;;;;4.83;3.90;;;22.20;54.00;;;;;;5132380;27;20412;-51
2023/08/06 08:49:07;;;;;;;4.40;4.00;;;22.20;54.10;;;;;;5133441;27;20836;-51
2023/08/06 08:51:37;;;;;;;4.67;3.77;;;22.20;54.00;;;;;;5133479;27;20464;-54
2023/08/06 08:54:04;;;;;;;4.27;3.70;;;22.20;54.10;;;;;;5132371;27;20194;-51
2023/08/06 08:56:31;;;;;;;4.00;3.63;;;22.20;53.80;;;;;;5133635;27;20487;-53
2023/08/06 08:58:57;;;;;;;4.60;3.10;;;22.20;53.90;;;;;;5133126;27;20457;-54
2023/08/06 09:01:24;;;;;;;4.13;3.50;;;22.20;54.00;;;;;;5133364;27;20428;-50
2023/08/06 09:03:51;;;;;;;5.00;3.90;;;22.30;54.30;;;;;;5133374;27;20404;-51
2023/08/06 09:06:20;;;;;;;5.27;3.90;;;22.30;54.30;;;;;;5133382;27;20411;-53
2023/08/06 09:08:55;;;;;;;4.23;3.60;;;22.40;54.10;;;;;;5133163;27;20913;-53
2023/08/06 09:11:21;;;;;;;3.40;3.10;;;22.40;53.90;;;;;;5133010;27;20930;-52
2023/08/06 09:13:47;;;;;;;3.97;3.57;;;21.30;52.70;;;;;;5133149;27;20838;-51
2023/08/06 09:16:13;;;;;;;5.70;4.13;;;22.30;53.20;;;;;;5133297;27;20426;-53
2023/08/06 09:18:40;;;;;;;4.10;3.70;;;22.20;53.40;;;;;;5133133;27;20404;-54
2023/08/06 09:21:13;;;;;;;4.23;3.83;;;22.20;53.60;;;;;;5132702;27;20823;-52
2023/08/06 09:23:38;;;;;;;3.70;3.40;;;22.20;53.80;;;;;;5133053;27;20381;-52
2023/08/06 09:26:04;;;;;;;3.53;3.23;;;22.30;53.50;;;;;;5133036;27;20400;-54
2023/08/06 09:28:41;;;;;;;4.00;3.37;;;22.20;53.40;;;;;;5133324;27;20202;-51
2023/08/06 09:31:08;;;;;;;4.47;4.07;;;22.20;54.40;;;;;;5132669;27;20186;-53
2023/08/06 09:33:36;;;;;;;5.10;3.13;;;22.20;53.70;;;;;;5133180;27;20527;-51
2023/08/06 09:36:09;;;;;;;5.00;3.63;;;22.20;53.60;;;;;;5132839;27;20402;-50
2023/08/06 09:38:39;;;;;;;3.83;3.43;;;22.30;53.70;;;;;;5133148;27;20461;-54
2023/08/06 09:41:06;;;;;;;4.40;4.00;;;22.20;53.80;;;;;;5132501;27;20424;-54
2023/08/06 09:43:42;;;;;;;3.63;3.13;;;22.20;53.70;;;;;;5132872;27;20769;-51
2023/08/06 09:46:16;;;;;;;4.50;4.10;;;22.30;53.70;;;;;;5132972;27;20533;-51
2023/08/06 09:48:46;;;;;;;5.30;4.00;;;22.30;54.00;;;;;;5131466;28;20412;-52
2023/08/06 09:51:14;;;;;;;5.60;4.63;;;22.40;54.20;;;;;;5131412;28;20432;-51
2023/08/06 09:53:40;;;;;;;5.80;4.50;;;22.40;54.60;;;;;;5132668;27;20447;-51
2023/08/06 09:56:07;;;;;;;5.00;4.20;;;22.50;54.60;;;;;;5132747;27;20407;-53
2023/08/06 09:58:33;;;;;;;5.97;5.40;;;22.50;54.40;;;;;;5132785;27;20403;-51
2023/08/06 10:01:01;;;;;;;5.60;4.50;;;22.60;54.50;;;;;;5132285;27;20534;-54
2023/08/06 10:03:29;;;;;;;6.37;4.30;;;22.60;54.60;;;;;;5132824;27;20921;-51
2023/08/06 10:05:56;;;;;;;4.70;3.60;;;22.70;54.60;;;;;;5131400;27;20465;-51
2023/08/06 10:08:22;;;;;;;5.00;4.60;;;22.70;54.30;;;;;;5132796;27;20415;-51
2023/08/06 10:10:48;;;;;;;4.53;4.13;;;22.70;54.50;;;;;;5134771;27;20423;-53
2023/08/06 10:13:15;;;;;;;6.50;5.90;;;22.80;54.40;;;;;;5136964;27;20505;-51
2023/08/06 10:15:41;;;;;;;6.00;5.30;;;22.80;54.40;;;;;;5136502;27;20208;-54
2023/08/06 10:18:08;;;;;;;4.97;4.33;;;22.80;55.10;;;;;;5136606;27;20921;-53
2023/08/06 10:20:35;;;;;;;5.30;4.90;;;22.90;54.10;;;;;;5136379;27;20424;-50
2023/08/06 10:23:06;;;;;;;4.83;4.43;;;22.90;53.60;;;;;;5136414;27;20445;-53
2023/08/06 10:25:36;;;;;;;8.60;5.10;;;22.90;53.80;;;;;;5136408;27;21130;-50
2023/08/06 10:28:17;;;;;;;5.90;4.93;;;22.90;53.80;;;;;;5136736;27;20377;-52
2023/08/06 10:30:47;;;;;;;4.93;3.87;;;22.90;54.00;;;;;;5135960;27;20426;-53
2023/08/06 10:33:13;;;;;;;5.20;4.40;;;23.00;53.40;;;;;;5136405;27;20944;-52
2023/08/06 10:35:53;;;;;;;5.37;4.93;;;22.90;53.40;;;;;;5136239;27;20495;-54
2023/08/06 10:38:27;;;;;;;5.43;4.50;;;23.00;53.40;;;;;;5135010;27;20404;-52
2023/08/06 10:40:52;;;;;;;4.80;4.17;;;23.00;53.90;;;;;;5135742;27;21183;-51
2023/08/06 10:43:37;;;;;;;5.33;4.33;;;23.00;54.10;;;;;;5136114;27;20408;-53
2023/08/06 10:46:08;;;;;;;5.20;4.70;;;23.00;54.50;;;;;;5136180;27;20186;-51
2023/08/06 10:48:41;;;;;;;4.97;4.57;;;23.00;54.10;;;;;;5134945;27;20396;-52
2023/08/06 10:51:13;;;;;;;4.50;4.10;;;23.10;53.90;;;;;;5135537;27;20473;-53
2023/08/06 10:53:43;;;;;;;6.17;4.57;;;23.20;54.20;;;;;;5134538;27;20487;-51
2023/08/06 10:56:14;;;;;;;5.20;4.80;;;23.20;53.80;;;;;;5134581;27;20409;-52
2023/08/06 10:58:40;;;;;;;4.90;4.20;;;23.30;54.20;;;;;;5135805;27;20504;-54
2023/08/06 11:01:06;;;;;;;4.23;3.83;;;23.40;53.90;;;;;;5135391;27;20439;-51
2023/08/06 11:03:35;;;;;;;6.87;4.43;;;23.40;53.60;;;;;;5135653;27;20461;-51
2023/08/06 11:06:02;;;;;;;5.00;4.60;;;23.40;53.80;;;;;;5136004;27;20537;-53
2023/08/06 11:08:33;;;;;;;4.50;4.10;;;23.40;53.90;;;;;;5135666;27;20409;-54
2023/08/06 11:11:15;;;;;;;4.93;4.37;;;23.40;53.80;;;;;;5135271;27;20948;-52
2023/08/06 11:13:43;;;;;;;5.07;3.30;;;23.50;53.60;;;;;;5135450;27;20435;-54
2023/08/06 11:16:10;;;;;;;4.40;4.00;;;23.50;52.40;;;;;;5135484;27;20446;-51
2023/08/06 11:18:36;;;;;;;5.70;4.60;;;23.50;52.60;;;;;;5135475;27;20477;-54
2023/08/06 11:21:02;;;;;;;4.80;4.00;;;23.50;52.50;;;;;;5135080;27;20419;-54
2023/08/06 11:23:28;;;;;;;3.80;3.40;;;23.50;53.00;;;;;;5135293;27;20926;-51
2023/08/06 11:25:55;;;;;;;3.93;3.53;;;23.60;53.00;;;;;;5135283;27;20624;-54
2023/08/06 11:28:24;;;;;;;3.57;3.27;;;23.70;52.80;;;;;;5135184;27;20407;-54
2023/08/06 11:30:50;;;;;;;4.60;4.10;;;23.70;52.50;;;;;;5135080;27;20446;-51
2023/08/06 11:33:26;;;;;;;5.03;4.53;;;23.80;52.70;;;;;;5133791;27;20448;-53
2023/08/06 11:35:56;;;;;;;7.27;4.80;;;23.80;52.50;;;;;;5135293;27;20450;-54
2023/08/06 11:38:26;;;;;;;4.33;3.50;;;23.90;52.70;;;;;;5135055;27;20445;-51
2023/08/06 11:40:53;;;;;;;4.90;4.50;;;23.90;52.40;;;;;;5134775;27;20818;-53
2023/08/06 11:43:20;;;;;;;4.37;3.73;;;23.90;51.90;;;;;;5134736;27;20913;-51
2023/08/06 11:45:46;;;;;;;5.53;3.90;;;23.90;52.00;;;;;;5134914;27;20765;-52
2023/08/06 11:48:12;;;;;;;4.13;3.83;;;23.90;52.20;;;;;;5133631;27;20829;-54
2023/08/06 11:50:41;;;;;;;3.93;3.63;;;23.90;51.40;;;;;;5134504;27;20452;-50
2023/08/06 11:53:07;;;;;;;4.53;4.13;;;24.00;51.40;;;;;;5134672;27;20167;-53
2023/08/06 11:55:33;;;;;;;4.20;3.80;;;24.00;51.20;;;;;;5134812;27;20399;-51
2023/08/06 11:58:03;;;;;;;5.33;4.13;;;24.00;50.60;;;;;;5134486;27;20392;-53
2023/08/06 12:00:29;;;;;;;4.57;4.17;;;24.00;51.00;;;;;;5134353;27;20439;-54
2023/08/06 12:02:56;;;;;;;4.83;4.37;;;24.00;50.90;;;;;;5134506;27;20408;-50
2023/08/06 12:05:35;;;;;;;5.20;4.13;;;24.10;50.30;;;;;;5134762;27;20407;-52
2023/08/06 12:08:03;;;;;;;4.10;3.80;;;24.10;50.10;;;;;;5133184;27;20404;-54
2023/08/06 12:10:30;;;;;;;4.77;4.27;;;24.10;50.70;;;;;;5134300;27;20436;-51
2023/08/06 12:12:56;;;;;;;5.13;3.93;;;24.10;50.70;;;;;;5132942;27;20403;-51
2023/08/06 12:15:23;;;;;;;4.03;3.20;;;24.10;50.10;;;;;;5133066;27;20396;-53
2023/08/06 12:17:49;;;;;;;7.37;4.73;;;24.20;48.80;;;;;;5134164;27;20411;-52
2023/08/06 12:20:15;;;;;;;4.10;3.70;;;24.10;49.90;;;;;;5133844;27;20511;-54
2023/08/06 12:22:41;;;;;;;4.00;3.70;;;24.10;49.80;;;;;;5134069;27;20498;-51
2023/08/06 12:25:14;;;;;;;5.77;4.63;;;24.10;50.70;;;;;;5134140;27;20194;-52
2023/08/06 12:27:44;;;;;;;4.77;4.37;;;24.10;49.50;;;;;;5134022;27;20167;-52
2023/08/06 12:30:11;;;;;;;3.93;3.63;;;24.10;50.00;;;;;;5133806;27;20420;-51
2023/08/06 12:32:37;;;;;;;4.73;4.33;;;24.10;50.30;;;;;;5132200;27;20476;-53
2023/08/06 12:35:04;;;;;;;5.17;4.47;;;24.10;50.50;;;;;;5133816;27;20906;-52
2023/08/06 12:37:30;;;;;;;4.90;4.50;;;24.10;50.40;;;;;;5133740;27;20423;-53
2023/08/06 12:39:56;;;;;;;5.20;4.70;;;24.20;50.00;;;;;;5133530;27;20905;-54
2023/08/06 12:42:22;;;;;;;6.77;4.57;;;24.20;50.20;;;;;;5133680;27;20715;-54
2023/08/06 12:44:51;;;;;;;4.03;3.73;;;24.30;49.30;;;;;;5133776;27;20170;-53